createdAt,value
2023-05-10T00:01:03.465Z,13.20
2023-05-10T00:03:31.317Z,13.10
2023-05-10T00:05:59.093Z,13.10
2023-05-10T00:08:26.842Z,13.10
2023-05-10T00:10:55.031Z,13.10
2023-05-10T00:13:22.879Z,13.00
2023-05-10T00:15:52.233Z,13.00
2023-05-10T00:18:19.929Z,13.00
2023-05-10T00:20:47.867Z,13.00
2023-05-10T00:23:15.602Z,13.00
2023-05-10T00:25:43.410Z,13.00
2023-05-10T00:28:11.112Z,13.10
2023-05-10T00:30:38.848Z,13.10
2023-05-10T00:33:07.979Z,13.10
2023-05-10T00:35:35.831Z,13.10
2023-05-10T00:38:03.533Z,13.10
2023-05-10T00:40:31.687Z,13.00
2023-05-10T00:43:00.253Z,13.00
2023-05-10T00:45:28.098Z,13.10
2023-05-10T00:47:56.907Z,13.10
2023-05-10T00:50:26.841Z,13.10
2023-05-10T00:52:54.772Z,13.10
2023-05-10T00:55:22.719Z,13.10
2023-05-10T00:57:50.474Z,13.10
2023-05-10T01:00:19.554Z,13.10
2023-05-10T01:02:47.986Z,13.10
2023-05-10T01:05:16.091Z,13.10
2023-05-10T01:07:45.445Z,13.10
2023-05-10T01:10:13.316Z,13.10
2023-05-10T01:12:44.638Z,13.00
2023-05-10T01:15:13.747Z,13.00
2023-05-10T01:17:44.308Z,13.10
2023-05-10T01:20:13.743Z,13.10
2023-05-10T01:23:07.221Z,13.10
2023-05-10T01:26:07.264Z,13.10
2023-05-10T01:29:08.169Z,13.10
2023-05-10T01:32:01.899Z,13.10
2023-05-10T01:34:37.648Z,13.10
2023-05-10T01:37:10.942Z,13.00
2023-05-10T01:39:46.413Z,13.00
2023-05-10T01:42:21.803Z,13.10
2023-05-10T01:44:58.975Z,13.10
2023-05-10T01:47:33.347Z,13.10
2023-05-10T01:50:06.597Z,13.10
2023-05-10T01:52:38.513Z,13.10
2023-05-10T01:55:11.027Z,13.10
2023-05-10T01:57:41.259Z,13.10
2023-05-10T02:00:12.062Z,13.10
2023-05-10T02:02:42.958Z,13.10
2023-05-10T02:05:15.013Z,13.10
2023-05-10T02:07:43.867Z,13.10
2023-05-10T02:10:12.578Z,13.00
2023-05-10T02:12:43.907Z,13.00
2023-05-10T02:15:14.222Z,13.00
2023-05-10T02:17:44.060Z,13.00
2023-05-10T02:20:14.662Z,13.00
2023-05-10T02:22:43.585Z,13.00
2023-05-10T02:25:13.914Z,13.00
2023-05-10T02:27:44.196Z,13.00
2023-05-10T02:30:13.286Z,13.00
2023-05-10T02:32:41.864Z,13.00
2023-05-10T02:35:11.655Z,13.00
2023-05-10T02:37:41.684Z,13.00
2023-05-10T02:40:10.716Z,12.90
2023-05-10T02:42:43.050Z,12.90
2023-05-10T02:45:14.558Z,12.90
2023-05-10T02:47:42.507Z,12.90
2023-05-10T02:50:11.166Z,12.90
2023-05-10T02:52:49.697Z,12.90
2023-05-10T02:55:21.201Z,12.90
2023-05-10T02:57:53.659Z,12.90
2023-05-10T03:00:21.744Z,12.90
2023-05-10T03:02:49.494Z,12.90
2023-05-10T03:05:17.234Z,12.80
2023-05-10T03:07:47.273Z,12.80
2023-05-10T03:10:15.451Z,12.80
2023-05-10T03:13:01.401Z,12.80
2023-05-10T03:15:39.645Z,12.80
2023-05-10T03:18:11.612Z,12.80
2023-05-10T03:20:44.516Z,12.80
2023-05-10T03:23:22.729Z,12.80
2023-05-10T03:25:51.457Z,12.80
2023-05-10T03:28:20.539Z,12.80
2023-05-10T03:30:49.302Z,12.70
2023-05-10T03:33:17.295Z,12.70
2023-05-10T03:35:46.597Z,12.70
2023-05-10T03:38:15.619Z,12.60
2023-05-10T03:40:43.404Z,12.60
2023-05-10T03:43:11.089Z,12.60
2023-05-10T03:45:38.769Z,12.70
2023-05-10T03:48:07.417Z,12.60
2023-05-10T03:50:35.278Z,12.70
2023-05-10T03:53:03.087Z,12.70
2023-05-10T03:55:35.364Z,12.60
2023-05-10T03:58:03.064Z,12.60
2023-05-10T04:00:30.993Z,12.60
2023-05-10T04:02:58.757Z,12.60
2023-05-10T04:05:26.523Z,12.60
2023-05-10T04:07:54.209Z,12.60
2023-05-10T04:10:22.160Z,12.60
2023-05-10T04:12:51.250Z,12.60
2023-05-10T04:15:19.159Z,12.60
2023-05-10T04:17:47.077Z,12.70
2023-05-10T04:20:15.165Z,12.60
2023-05-10T04:22:43.011Z,12.60
2023-05-10T04:25:11.138Z,12.70
2023-05-10T04:27:38.854Z,12.60
2023-05-10T04:30:09.725Z,12.60
2023-05-10T04:32:37.459Z,12.70
2023-05-10T04:35:05.656Z,12.70
2023-05-10T04:37:33.420Z,12.70
2023-05-10T04:40:01.818Z,12.70
2023-05-10T04:42:29.534Z,12.70
2023-05-10T04:44:57.218Z,12.70
2023-05-10T04:47:26.230Z,12.70
2023-05-10T04:49:53.922Z,12.70
2023-05-10T04:52:21.630Z,12.70
2023-05-10T04:54:49.429Z,12.70
2023-05-10T04:57:17.187Z,12.70
2023-05-10T04:59:44.888Z,12.70
2023-05-10T05:02:12.590Z,12.70
2023-05-10T05:04:41.665Z,12.70
2023-05-10T05:07:09.521Z,12.70
2023-05-10T05:09:37.239Z,12.70
2023-05-10T05:12:05.642Z,12.70
2023-05-10T05:14:33.366Z,12.80
2023-05-10T05:17:01.128Z,12.80
2023-05-10T05:19:28.814Z,12.80
2023-05-10T05:21:57.820Z,12.80
2023-05-10T05:24:25.530Z,12.80
2023-05-10T05:26:53.219Z,12.80
2023-05-10T05:29:20.906Z,12.80
2023-05-10T05:31:48.600Z,12.80
2023-05-10T05:34:16.335Z,12.90
2023-05-10T05:36:44.035Z,12.80
2023-05-10T05:39:13.049Z,12.80
2023-05-10T05:41:40.901Z,12.80
2023-05-10T05:44:08.597Z,12.80
2023-05-10T05:46:36.347Z,12.80
2023-05-10T05:49:04.054Z,12.80
2023-05-10T05:51:32.362Z,12.80
2023-05-10T05:54:00.169Z,12.80
2023-05-10T05:56:29.242Z,12.80
2023-05-10T05:58:57.059Z,12.80
2023-05-10T06:01:24.795Z,12.80
2023-05-10T06:03:53.383Z,12.70
2023-05-10T06:06:21.536Z,12.80
2023-05-10T06:08:49.238Z,12.80
2023-05-10T06:11:16.940Z,12.80
2023-05-10T06:13:46.437Z,12.80
2023-05-10T06:16:14.167Z,12.80
2023-05-10T06:18:41.997Z,12.80
2023-05-10T06:21:10.225Z,12.90
2023-05-10T06:23:37.950Z,12.90
2023-05-10T06:26:05.778Z,12.90
2023-05-10T06:28:34.405Z,13.00
2023-05-10T06:31:03.481Z,13.00
2023-05-10T06:33:31.305Z,13.10
2023-05-10T06:35:59.070Z,13.10
2023-05-10T06:38:27.302Z,13.20
2023-05-10T06:40:54.982Z,13.20
2023-05-10T06:43:22.795Z,13.20
2023-05-10T06:45:50.716Z,13.20
2023-05-10T06:48:19.786Z,13.30
2023-05-10T06:50:47.507Z,13.30
2023-05-10T06:53:15.239Z,13.30
2023-05-10T06:55:43.214Z,13.30
2023-05-10T06:58:10.922Z,13.30
2023-05-10T07:00:41.271Z,13.30
2023-05-10T07:03:09.083Z,13.30
2023-05-10T07:05:38.345Z,13.30
2023-05-10T07:08:06.238Z,13.30
2023-05-10T07:10:34.559Z,13.30
2023-05-10T07:13:02.368Z,13.30
2023-05-10T07:15:30.434Z,13.30
2023-05-10T07:17:58.265Z,13.30
2023-05-10T07:20:26.092Z,13.30
2023-05-10T07:22:55.206Z,13.20
2023-05-10T07:25:22.895Z,13.20
2023-05-10T07:27:50.616Z,13.20
2023-05-10T07:34:10.904Z,13.10
2023-05-10T07:36:38.610Z,13.20
2023-05-10T07:39:07.977Z,13.20
2023-05-10T07:41:36.134Z,13.10
2023-05-10T07:44:04.514Z,13.10
2023-05-10T07:46:32.237Z,13.10
2023-05-10T07:48:59.922Z,13.10
2023-05-10T07:51:28.854Z,13.10
2023-05-10T07:53:56.546Z,13.10
2023-05-10T07:56:30.270Z,13.10
2023-05-10T07:58:58.700Z,13.10
2023-05-10T08:01:26.910Z,13.10
2023-05-10T08:03:55.079Z,13.10
2023-05-10T08:06:23.184Z,13.20
2023-05-10T08:08:51.658Z,13.20
2023-05-10T08:11:19.786Z,13.30
2023-05-10T08:13:49.527Z,13.30
2023-05-10T08:16:17.721Z,13.30
2023-05-10T08:18:47.620Z,13.40
2023-05-10T08:21:15.495Z,13.50
2023-05-10T08:23:44.560Z,13.50
2023-05-10T08:26:12.453Z,13.60
2023-05-10T08:28:40.280Z,13.60
2023-05-10T08:31:09.368Z,13.60
2023-05-10T08:33:37.062Z,13.70
2023-05-10T08:36:04.990Z,13.70
2023-05-10T08:38:32.721Z,13.80
2023-05-10T08:41:01.763Z,13.80
2023-05-10T08:43:30.901Z,13.80
2023-05-10T08:46:01.969Z,13.80
2023-05-10T08:48:31.928Z,13.80
2023-05-10T08:51:02.898Z,13.90
2023-05-10T08:53:33.045Z,13.90
2023-05-10T08:56:00.989Z,13.90
2023-05-10T08:58:28.724Z,14.00
2023-05-10T09:00:57.823Z,14.00
2023-05-10T09:03:25.554Z,14.10
2023-05-10T09:05:56.643Z,14.10
2023-05-10T09:08:26.719Z,14.20
2023-05-10T09:10:55.140Z,14.20
2023-05-10T09:13:23.827Z,14.20
2023-05-10T09:15:51.570Z,14.20
2023-05-10T09:18:19.380Z,14.30
2023-05-10T09:20:47.149Z,14.30
2023-05-10T09:23:16.389Z,14.30
2023-05-10T09:25:44.446Z,14.30
2023-05-10T09:28:13.862Z,14.30
2023-05-10T09:30:41.659Z,14.30
2023-05-10T09:33:09.362Z,14.40
2023-05-10T09:35:37.072Z,14.40
2023-05-10T09:38:06.379Z,14.40
2023-05-10T09:40:35.790Z,14.40
2023-05-10T09:43:06.774Z,14.40
2023-05-10T09:45:38.573Z,14.30
2023-05-10T09:48:07.897Z,14.30
2023-05-10T09:50:35.926Z,14.30
2023-05-10T09:53:05.222Z,14.20
2023-05-10T09:55:45.093Z,14.20
2023-05-10T09:58:13.637Z,14.10
2023-05-10T10:00:42.994Z,14.10
2023-05-10T10:03:15.194Z,14.10
2023-05-10T10:05:44.353Z,14.10
2023-05-10T10:08:13.243Z,14.00
2023-05-10T10:10:45.904Z,14.00
2023-05-10T10:13:13.867Z,14.00
2023-05-10T10:15:41.826Z,14.00
2023-05-10T10:18:14.253Z,14.00
2023-05-10T10:20:42.803Z,14.00
2023-05-10T10:23:10.606Z,14.00
2023-05-10T10:25:39.686Z,13.90
2023-05-10T10:28:28.170Z,13.90
2023-05-10T10:30:58.279Z,13.90
2023-05-10T10:33:40.797Z,14.00
2023-05-10T10:36:09.487Z,14.00
2023-05-10T10:39:00.251Z,14.10
2023-05-10T10:41:33.371Z,14.20
2023-05-10T10:44:28.404Z,14.30
2023-05-10T10:47:09.409Z,14.40
2023-05-10T10:49:44.763Z,14.50
2023-05-10T10:52:28.986Z,14.40
2023-05-10T10:55:02.002Z,14.40
2023-05-10T10:57:33.215Z,14.30
2023-05-10T11:00:28.349Z,14.30
2023-05-10T11:02:58.573Z,14.30
2023-05-10T11:05:38.316Z,14.30
2023-05-10T11:08:11.900Z,14.30
2023-05-10T11:10:40.390Z,14.30
2023-05-10T11:13:09.464Z,14.30
2023-05-10T11:15:40.548Z,14.30
2023-05-10T11:18:21.968Z,14.30
2023-05-10T11:20:53.378Z,14.20
2023-05-10T11:23:21.961Z,14.20
2023-05-10T11:25:50.991Z,14.20
2023-05-10T11:28:20.162Z,14.10
2023-05-10T11:30:49.599Z,14.10
2023-05-10T11:33:18.668Z,14.10
2023-05-10T11:35:46.431Z,14.10
2023-05-10T11:38:15.767Z,14.10
2023-05-10T11:40:43.807Z,14.10
2023-05-10T11:43:13.059Z,14.10
2023-05-10T11:45:43.228Z,14.10
2023-05-10T11:48:12.422Z,14.10
2023-05-10T11:50:40.242Z,14.10
2023-05-10T11:53:07.934Z,14.20
2023-05-10T11:55:36.175Z,14.30
2023-05-10T11:58:04.529Z,14.40
2023-05-10T12:00:33.284Z,14.50
2023-05-10T12:03:03.574Z,14.60
2023-05-10T12:05:35.364Z,14.80
2023-05-10T12:08:16.701Z,14.90
2023-05-10T12:10:44.406Z,15.10
2023-05-10T12:13:16.109Z,15.30
2023-05-10T12:15:45.056Z,15.30
2023-05-10T12:18:13.610Z,15.40
2023-05-10T12:20:43.372Z,15.40
2023-05-10T12:23:11.778Z,15.40
2023-05-10T12:25:40.986Z,15.40
2023-05-10T12:28:10.570Z,15.40
2023-05-10T12:30:38.773Z,15.50
2023-05-10T12:35:49.833Z,15.50
2023-05-10T12:38:31.773Z,15.50
2023-05-10T12:41:00.595Z,15.50
2023-05-10T12:43:28.477Z,15.50
2023-05-10T12:45:56.319Z,15.40
2023-05-10T12:48:24.261Z,15.40
2023-05-10T12:50:53.348Z,15.40
2023-05-10T12:53:21.035Z,15.40
2023-05-10T12:55:48.736Z,15.50
2023-05-10T12:58:27.837Z,15.60
2023-05-10T13:01:02.680Z,15.60
2023-05-10T13:03:30.544Z,15.60
2023-05-10T13:05:59.596Z,15.60
2023-05-10T13:08:27.361Z,15.70
2023-05-10T13:10:55.602Z,15.90
2023-05-10T13:13:23.303Z,16.00
2023-05-10T13:15:51.108Z,16.10
2023-05-10T13:18:18.895Z,16.20
2023-05-10T13:20:46.717Z,16.30
2023-05-10T13:23:15.874Z,16.30
2023-05-10T13:25:43.673Z,16.40
2023-05-10T13:28:11.375Z,16.40
2023-05-10T13:30:39.081Z,16.30
2023-05-10T13:33:06.831Z,16.40
2023-05-10T13:35:34.623Z,16.40
2023-05-10T13:38:02.341Z,16.50
2023-05-10T13:40:31.453Z,16.60
2023-05-10T13:42:59.180Z,16.60
2023-05-10T13:45:26.877Z,16.70
2023-05-10T13:47:54.827Z,16.70
2023-05-10T13:50:22.806Z,16.70
2023-05-10T13:52:50.713Z,16.70
2023-05-10T13:55:18.675Z,16.60
2023-05-10T13:57:48.453Z,16.60
2023-05-10T14:00:17.239Z,16.70
2023-05-10T14:02:44.970Z,16.80
2023-05-10T14:05:13.187Z,17.00
2023-05-10T14:07:40.880Z,17.10
2023-05-10T14:10:09.150Z,17.10
2023-05-10T14:12:37.093Z,17.10
2023-05-10T14:15:07.630Z,17.00
2023-05-10T14:17:35.439Z,16.90
2023-05-10T14:20:04.634Z,16.80
2023-05-10T14:22:32.392Z,16.70
2023-05-10T14:25:00.499Z,16.50
2023-05-10T14:27:28.453Z,16.40
2023-05-10T14:29:56.282Z,16.40
2023-05-10T14:32:25.707Z,16.50
2023-05-10T14:34:53.474Z,16.60
2023-05-10T14:37:21.693Z,16.80
2023-05-10T14:39:49.376Z,17.10
2023-05-10T14:42:17.040Z,17.30
2023-05-10T14:44:44.765Z,17.40
2023-05-10T14:47:12.557Z,17.40
2023-05-10T14:49:41.756Z,17.30
2023-05-10T14:52:09.460Z,17.20
2023-05-10T14:54:37.173Z,17.20
2023-05-10T14:57:04.942Z,17.10
2023-05-10T14:59:32.633Z,17.10
2023-05-10T15:02:01.144Z,17.10
2023-05-10T15:04:29.242Z,17.10
2023-05-10T15:07:00.070Z,17.10
2023-05-10T15:09:28.409Z,17.20
2023-05-10T15:11:56.215Z,17.20
2023-05-10T15:14:24.139Z,17.20
2023-05-10T15:16:51.970Z,17.20
2023-05-10T15:19:19.671Z,17.30
2023-05-10T15:21:48.200Z,17.30
2023-05-10T15:24:17.344Z,17.30
2023-05-10T15:26:45.052Z,17.40
2023-05-10T15:29:12.750Z,17.40
2023-05-10T15:31:40.652Z,17.40
2023-05-10T15:34:08.412Z,17.40
2023-05-10T15:36:36.088Z,17.50
2023-05-10T15:39:04.635Z,17.50
2023-05-10T15:41:33.677Z,17.60
2023-05-10T15:44:01.575Z,17.60
2023-05-10T15:46:29.429Z,17.50
2023-05-10T15:48:57.479Z,17.50
2023-05-10T15:51:25.182Z,17.50
2023-05-10T15:54:05.691Z,17.50
2023-05-10T15:56:36.750Z,17.50
2023-05-10T15:59:05.936Z,17.50
2023-05-10T16:01:33.725Z,17.50
2023-05-10T16:04:01.814Z,17.50
2023-05-10T16:06:29.664Z,17.40
2023-05-10T16:08:57.450Z,17.30
2023-05-10T16:11:25.867Z,17.30
2023-05-10T16:13:55.289Z,17.20
2023-05-10T16:16:23.203Z,17.10
2023-05-10T16:18:51.076Z,17.00
2023-05-10T16:21:19.032Z,17.00
2023-05-10T16:23:46.972Z,17.00
2023-05-10T16:26:14.681Z,16.90
2023-05-10T16:28:42.383Z,16.90
2023-05-10T16:31:11.484Z,16.90
2023-05-10T16:33:39.208Z,16.80
2023-05-10T16:36:07.117Z,16.80
2023-05-10T16:38:34.805Z,16.80
2023-05-10T16:41:03.821Z,16.80
2023-05-10T16:43:33.032Z,16.70
2023-05-10T16:46:00.790Z,16.70
2023-05-10T16:48:29.897Z,16.70
2023-05-10T16:50:57.703Z,16.60
2023-05-10T16:53:25.397Z,16.60
2023-05-10T16:55:53.085Z,16.50
2023-05-10T16:58:20.772Z,16.50
2023-05-10T17:00:48.481Z,16.50
2023-05-10T17:03:16.339Z,16.40
2023-05-10T17:05:45.837Z,16.30
2023-05-10T17:08:13.553Z,16.30
2023-05-10T17:10:41.404Z,16.20
2023-05-10T17:13:10.425Z,16.10
2023-05-10T17:15:38.933Z,16.10
2023-05-10T17:18:07.419Z,16.00
2023-05-10T17:20:35.455Z,15.90
2023-05-10T17:23:04.516Z,15.90
2023-05-10T17:25:32.264Z,15.80
2023-05-10T17:27:59.966Z,15.70
2023-05-10T17:30:28.724Z,15.70
2023-05-10T17:32:56.553Z,15.60
2023-05-10T17:35:24.291Z,15.60
2023-05-10T17:37:52.028Z,15.50
2023-05-10T17:40:21.178Z,15.40
2023-05-10T17:42:49.238Z,15.40
2023-05-10T17:45:17.123Z,15.30
2023-05-10T17:47:45.112Z,15.30
2023-05-10T17:50:12.814Z,15.20
2023-05-10T17:52:40.646Z,15.20
2023-05-10T17:55:09.262Z,15.20
2023-05-10T17:57:38.675Z,15.20
2023-05-10T18:00:08.677Z,15.10
2023-05-10T18:02:36.969Z,15.10
2023-05-10T18:05:05.159Z,15.10
2023-05-10T18:07:33.106Z,15.00
2023-05-10T18:10:00.963Z,15.00
2023-05-10T18:12:28.786Z,15.00
2023-05-10T18:14:57.834Z,14.90
2023-05-10T18:17:25.707Z,14.90
2023-05-10T18:19:53.820Z,14.90
2023-05-10T18:22:21.579Z,14.90
2023-05-10T18:24:49.305Z,14.80
2023-05-10T18:27:17.072Z,14.80
2023-05-10T18:29:44.928Z,14.80
2023-05-10T18:32:13.999Z,14.70
2023-05-10T18:34:41.694Z,14.70
2023-05-10T18:37:10.034Z,14.70
2023-05-10T18:39:38.115Z,14.60
2023-05-10T18:42:06.653Z,14.60
2023-05-10T18:44:34.462Z,14.50
2023-05-10T18:47:02.184Z,14.50
2023-05-10T18:49:31.286Z,14.50
2023-05-10T18:51:58.985Z,14.50
2023-05-10T18:54:26.735Z,14.40
2023-05-10T18:56:54.483Z,14.40
2023-05-10T18:59:22.776Z,14.40
2023-05-10T19:01:51.328Z,14.30
2023-05-10T19:04:19.270Z,14.30
2023-05-10T19:06:48.330Z,14.20
2023-05-10T19:09:16.135Z,14.20
2023-05-10T19:11:43.919Z,14.10
2023-05-10T19:14:11.599Z,14.10
2023-05-10T19:16:40.207Z,14.10
2023-05-10T19:19:07.991Z,14.00
2023-05-10T19:21:35.974Z,14.00
2023-05-10T19:24:05.204Z,13.90
2023-05-10T19:26:32.934Z,13.90
2023-05-10T19:29:00.684Z,13.90
2023-05-10T19:31:28.666Z,13.90
2023-05-10T19:33:58.810Z,13.80
2023-05-10T19:36:28.323Z,13.80
2023-05-10T19:38:56.074Z,13.80
2023-05-10T19:41:25.097Z,13.80
2023-05-10T19:43:52.931Z,13.80
2023-05-10T19:46:20.822Z,13.70
2023-05-10T19:48:50.106Z,13.70
2023-05-10T19:51:17.825Z,13.70
2023-05-10T19:53:45.531Z,13.60
2023-05-10T19:56:14.192Z,13.60
2023-05-10T19:58:43.216Z,13.60
2023-05-10T20:01:10.991Z,13.60
2023-05-10T20:03:38.795Z,13.60
2023-05-10T20:06:06.995Z,13.50
2023-05-10T20:08:34.741Z,13.50
2023-05-10T20:11:03.721Z,13.50
2023-05-10T20:13:31.762Z,13.50
2023-05-10T20:16:02.100Z,13.50
2023-05-10T20:18:29.793Z,13.40
2023-05-10T20:21:01.129Z,13.40
2023-05-10T20:23:28.823Z,13.40
2023-05-10T20:25:57.161Z,13.40
2023-05-10T20:28:26.979Z,13.40
2023-05-10T20:30:55.940Z,13.40
2023-05-10T20:33:26.007Z,13.30
2023-05-10T20:35:53.843Z,13.30
2023-05-10T20:38:21.955Z,13.30
2023-05-10T20:40:49.886Z,13.30
2023-05-10T20:43:19.146Z,13.30
2023-05-10T20:45:46.942Z,13.30
2023-05-10T20:48:14.689Z,13.30
2023-05-10T20:50:43.882Z,13.20
2023-05-10T20:53:11.563Z,13.20
2023-05-10T20:55:39.481Z,13.20
2023-05-10T20:58:07.185Z,13.10
2023-05-10T21:00:34.904Z,13.10
2023-05-10T21:03:02.618Z,13.10
2023-05-10T21:05:30.437Z,13.10
2023-05-10T21:07:59.471Z,13.10
2023-05-10T21:10:28.215Z,13.10
2023-05-10T21:12:56.049Z,13.10
2023-05-10T21:15:24.371Z,13.10
2023-05-10T21:17:53.813Z,13.00
2023-05-10T21:20:21.555Z,13.00
2023-05-10T21:22:50.403Z,13.00
2023-05-10T21:25:19.712Z,12.90
2023-05-10T21:27:47.427Z,12.90
2023-05-10T21:30:15.447Z,12.90
2023-05-10T21:32:43.250Z,12.90
2023-05-10T21:35:11.282Z,12.90
2023-05-10T21:37:38.968Z,12.90
2023-05-10T21:40:07.618Z,12.90
2023-05-10T21:42:36.673Z,12.80
2023-05-10T21:45:04.878Z,12.80
2023-05-10T21:47:32.646Z,12.80
2023-05-10T21:50:00.816Z,12.80
2023-05-10T21:52:28.531Z,12.80
2023-05-10T21:54:56.219Z,12.80
2023-05-10T21:57:23.908Z,12.80
2023-05-10T21:59:52.983Z,12.80
2023-05-10T22:02:20.812Z,12.80
2023-05-10T22:04:48.554Z,12.80
2023-05-10T22:07:16.779Z,12.80
2023-05-10T22:09:44.587Z,12.80
2023-05-10T22:12:12.850Z,12.80
2023-05-10T22:14:40.674Z,12.70
2023-05-10T22:17:09.900Z,12.70
2023-05-10T22:19:37.703Z,12.70
2023-05-10T22:22:05.405Z,12.70
2023-05-10T22:24:33.194Z,12.70
2023-05-10T22:27:02.756Z,12.70
2023-05-10T22:29:30.801Z,12.60
2023-05-10T22:31:58.697Z,12.60
2023-05-10T22:34:27.723Z,12.60
2023-05-10T22:36:55.451Z,12.50
2023-05-10T22:39:23.346Z,12.50
2023-05-10T22:41:51.043Z,12.50
2023-05-10T22:44:18.731Z,12.40
2023-05-10T22:46:46.463Z,12.40
2023-05-10T22:49:14.237Z,12.30
2023-05-10T22:51:43.534Z,12.30
2023-05-10T22:54:11.233Z,12.20
2023-05-10T22:56:38.966Z,12.20
2023-05-10T22:59:06.668Z,12.20
2023-05-10T23:01:34.774Z,12.20
2023-05-10T23:04:02.499Z,12.20
2023-05-10T23:06:30.213Z,12.20
2023-05-10T23:08:59.266Z,12.10
2023-05-10T23:11:26.968Z,12.10
2023-05-10T23:13:54.668Z,12.10
2023-05-10T23:16:22.456Z,12.10
2023-05-10T23:18:50.377Z,12.10
2023-05-10T23:21:18.235Z,12.10
2023-05-10T23:23:45.938Z,12.10
2023-05-10T23:26:14.989Z,12.10
2023-05-10T23:28:42.677Z,12.10
2023-05-10T23:31:10.532Z,12.10
2023-05-10T23:33:38.230Z,12.10
2023-05-10T23:36:06.455Z,12.10
2023-05-10T23:38:34.172Z,12.10
2023-05-10T23:41:01.872Z,12.10
2023-05-10T23:43:31.170Z,12.10
2023-05-10T23:45:59.506Z,12.10
2023-05-10T23:48:27.296Z,12.10
2023-05-10T23:50:54.977Z,12.10
2023-05-10T23:53:22.696Z,12.10
2023-05-10T23:55:50.410Z,12.10
2023-05-10T23:58:18.144Z,12.10
